Main page
METAR-TAF:

METAR-TAF

Airports :

Friedrichshafen Airport

Friedrichshafen, Germany

latitude: 47-40N, longitude: 009-31E, elevation: 416 m

Current weather observation

The report was made 42 minutes ago, at 08:20 UTC
Wind 9 kt from the North/Northeast
Temperature 0°C
Humidity 80%
Pressure 1022 hPa
Visibility 10 km or more
Overcast at a height of 1600 ft

METAR: EDNY 180820Z 03009KT 9999 OVC016 00/M03 Q1022

Time: 10:02 (09:02 UTC)

Forecast

The report was made 4 hours and 2 minutes ago, at 05:00 UTC
Forecast valid from 18 at 06 UTC to 19 at 06 UTC
Wind 8 kt from the North/Northeast
Visibility 10 km or more
Few clouds at a height of 2500 ft
Probability 30% :
Temporary
from 18 at 06 UTC to 18 at 09 UTC
Broken clouds at a height of 1200 ft

TAF: EDNY 180500Z 1806/1906 03008KT 9999 FEW025 PROB30 TEMPO 1806/1809 BKN012

Weather observations and forecasts of more than 4000 airports (METAR and TAF reports).

The available stations are represented by yellow and red dots on the map.

Hover mouse over dot to see the name of the station.

Then click to see weather observations and forecasts.

To change the map : click on the green buttons with a black cross to zoom in, on the green button with a dash to zoom out, or on the green arrows for adjacent maps.


METAR-TAF: